sensor_id;sensor_type;location;lat;lon;timestamp;temperature;humidity
74220;DHT22;62580;54.416;11.120;2022-09-01T00:03:47;23.80;60.60
74220;DHT22;62580;54.416;11.120;2022-09-01T00:13:49;23.80;60.50
74220;DHT22;62580;54.416;11.120;2022-09-01T00:23:51;23.80;60.50
74220;DHT22;62580;54.416;11.120;2022-09-01T00:33:55;23.80;60.50
74220;DHT22;62580;54.416;11.120;2022-09-01T00:43:59;23.70;60.30
74220;DHT22;62580;54.416;11.120;2022-09-01T00:54:00;23.80;60.50
74220;DHT22;62580;54.416;11.120;2022-09-01T01:04:03;23.70;60.30
74220;DHT22;62580;54.416;11.120;2022-09-01T01:14:06;23.70;60.40
74220;DHT22;62580;54.416;11.120;2022-09-01T01:24:18;23.80;60.50
74220;DHT22;62580;54.416;11.120;2022-09-01T01:34:22;23.80;60.40
74220;DHT22;62580;54.416;11.120;2022-09-01T01:44:25;23.70;60.30
74220;DHT22;62580;54.416;11.120;2022-09-01T01:54:27;23.70;60.40
74220;DHT22;62580;54.416;11.120;2022-09-01T02:04:29;23.70;60.30
74220;DHT22;62580;54.416;11.120;2022-09-01T02:14:30;23.70;60.30
74220;DHT22;62580;54.416;11.120;2022-09-01T02:24:32;23.70;60.40
74220;DHT22;62580;54.416;11.120;2022-09-01T02:34:35;23.70;60.30
74220;DHT22;62580;54.416;11.120;2022-09-01T02:44:37;23.70;60.20
74220;DHT22;62580;54.416;11.120;2022-09-01T02:54:38;23.70;60.40
74220;DHT22;62580;54.416;11.120;2022-09-01T03:04:40;23.70;60.40
74220;DHT22;62580;54.416;11.120;2022-09-01T03:14:41;23.70;60.30
74220;DHT22;62580;54.416;11.120;2022-09-01T03:24:46;23.70;60.30
74220;DHT22;62580;54.416;11.120;2022-09-01T03:34:46;23.70;60.40
74220;DHT22;62580;54.416;11.120;2022-09-01T03:44:48;23.60;60.20
74220;DHT22;62580;54.416;11.120;2022-09-01T03:54:49;23.60;60.20
74220;DHT22;62580;54.416;11.120;2022-09-01T04:04:51;23.60;60.20
74220;DHT22;62580;54.416;11.120;2022-09-01T04:14:51;23.60;60.20
74220;DHT22;62580;54.416;11.120;2022-09-01T04:24:56;23.60;60.10
74220;DHT22;62580;54.416;11.120;2022-09-01T04:34:57;23.50;60.10
74220;DHT22;62580;54.416;11.120;2022-09-01T04:44:59;23.60;60.20
74220;DHT22;62580;54.416;11.120;2022-09-01T04:55:00;23.60;60.10
74220;DHT22;62580;54.416;11.120;2022-09-01T05:05:02;23.60;60.20
74220;DHT22;62580;54.416;11.120;2022-09-01T05:15:04;23.50;60.00
74220;DHT22;62580;54.416;11.120;2022-09-01T05:25:09;23.50;60.00
74220;DHT22;62580;54.416;11.120;2022-09-01T05:35:10;23.50;59.90
74220;DHT22;62580;54.416;11.120;2022-09-01T05:45:13;23.60;60.00
74220;DHT22;62580;54.416;11.120;2022-09-01T05:55:13;23.50;59.80
74220;DHT22;62580;54.416;11.120;2022-09-01T06:05:15;23.60;59.80
74220;DHT22;62580;54.416;11.120;2022-09-01T06:15:16;23.50;59.80
74220;DHT22;62580;54.416;11.120;2022-09-01T06:25:21;23.50;59.90
74220;DHT22;62580;54.416;11.120;2022-09-01T06:35:22;23.50;59.80
74220;DHT22;62580;54.416;11.120;2022-09-01T06:45:24;23.50;59.80
74220;DHT22;62580;54.416;11.120;2022-09-01T06:55:25;23.60;59.80
74220;DHT22;62580;54.416;11.120;2022-09-01T07:05:27;23.50;59.80
74220;DHT22;62580;54.416;11.120;2022-09-01T07:15:28;23.50;59.70
74220;DHT22;62580;54.416;11.120;2022-09-01T07:25:34;23.60;59.80
74220;DHT22;62580;54.416;11.120;2022-09-01T07:35:38;23.60;59.80
74220;DHT22;62580;54.416;11.120;2022-09-01T07:45:43;23.60;59.70
74220;DHT22;62580;54.416;11.120;2022-09-01T07:55:45;23.60;59.70
74220;DHT22;62580;54.416;11.120;2022-09-01T08:05:47;23.60;59.70
74220;DHT22;62580;54.416;11.120;2022-09-01T08:15:48;23.60;59.70
74220;DHT22;62580;54.416;11.120;2022-09-01T08:25:56;23.70;59.60
74220;DHT22;62580;54.416;11.120;2022-09-01T08:35:57;23.60;59.60
74220;DHT22;62580;54.416;11.120;2022-09-01T08:46:03;23.60;59.60
74220;DHT22;62580;54.416;11.120;2022-09-01T08:56:08;23.60;59.50
74220;DHT22;62580;54.416;11.120;2022-09-01T09:06:18;23.60;59.50
74220;DHT22;62580;54.416;11.120;2022-09-01T09:16:24;23.70;59.60
74220;DHT22;62580;54.416;11.120;2022-09-01T09:26:31;23.60;59.50
74220;DHT22;62580;54.416;11.120;2022-09-01T09:36:34;23.70;59.50
74220;DHT22;62580;54.416;11.120;2022-09-01T09:46:38;23.70;59.50
74220;DHT22;62580;54.416;11.120;2022-09-01T09:56:40;23.70;59.50
74220;DHT22;62580;54.416;11.120;2022-09-01T10:06:43;23.70;59.50
74220;DHT22;62580;54.416;11.120;2022-09-01T10:16:47;23.70;59.40
74220;DHT22;62580;54.416;11.120;2022-09-01T10:26:56;23.70;59.50
74220;DHT22;62580;54.416;11.120;2022-09-01T10:36:59;23.70;60.00
74220;DHT22;62580;54.416;11.120;2022-09-01T10:47:03;23.70;59.40
74220;DHT22;62580;54.416;11.120;2022-09-01T10:57:09;23.70;59.50
74220;DHT22;62580;54.416;11.120;2022-09-01T11:07:30;23.70;59.50
74220;DHT22;62580;54.416;11.120;2022-09-01T11:17:33;23.70;59.40
74220;DHT22;62580;54.416;11.120;2022-09-01T11:28:00;23.70;59.50
74220;DHT22;62580;54.416;11.120;2022-09-01T11:38:04;23.70;59.40
74220;DHT22;62580;54.416;11.120;2022-09-01T11:48:08;23.70;59.40
74220;DHT22;62580;54.416;11.120;2022-09-01T11:58:11;23.70;59.30
74220;DHT22;62580;54.416;11.120;2022-09-01T12:08:16;23.70;59.40
74220;DHT22;62580;54.416;11.120;2022-09-01T12:18:19;23.70;59.40
74220;DHT22;62580;54.416;11.120;2022-09-01T12:28:27;23.70;59.40
74220;DHT22;62580;54.416;11.120;2022-09-01T12:38:29;23.70;59.40
74220;DHT22;62580;54.416;11.120;2022-09-01T12:48:33;23.80;59.40
74220;DHT22;62580;54.416;11.120;2022-09-01T12:58:34;23.70;59.40
74220;DHT22;62580;54.416;11.120;2022-09-01T13:08:36;23.80;59.30
74220;DHT22;62580;54.416;11.120;2022-09-01T13:18:38;23.80;59.30
74220;DHT22;62580;54.416;11.120;2022-09-01T13:28:45;23.80;59.30
74220;DHT22;62580;54.416;11.120;2022-09-01T13:38:46;23.80;59.30
74220;DHT22;62580;54.416;11.120;2022-09-01T13:48:48;23.80;59.30
74220;DHT22;62580;54.416;11.120;2022-09-01T13:58:49;23.80;59.30
74220;DHT22;62580;54.416;11.120;2022-09-01T14:08:51;23.80;59.30
74220;DHT22;62580;54.416;11.120;2022-09-01T14:18:51;23.80;59.30
74220;DHT22;62580;54.416;11.120;2022-09-01T14:28:56;23.80;59.40
74220;DHT22;62580;54.416;11.120;2022-09-01T14:38:58;23.80;59.40
74220;DHT22;62580;54.416;11.120;2022-09-01T14:49:01;23.80;59.40
74220;DHT22;62580;54.416;11.120;2022-09-01T14:59:02;23.90;59.50
74220;DHT22;62580;54.416;11.120;2022-09-01T15:09:04;23.80;59.50
74220;DHT22;62580;54.416;11.120;2022-09-01T15:19:05;23.90;59.50
74220;DHT22;62580;54.416;11.120;2022-09-01T15:29:10;23.90;59.50
74220;DHT22;62580;54.416;11.120;2022-09-01T15:39:11;23.90;59.50
74220;DHT22;62580;54.416;11.120;2022-09-01T15:49:13;24.00;59.50
74220;DHT22;62580;54.416;11.120;2022-09-01T15:59:14;24.00;59.60
74220;DHT22;62580;54.416;11.120;2022-09-01T16:09:17;24.00;59.60
74220;DHT22;62580;54.416;11.120;2022-09-01T16:19:25;24.00;59.90
74220;DHT22;62580;54.416;11.120;2022-09-01T16:29:39;24.00;60.30
74220;DHT22;62580;54.416;11.120;2022-09-01T16:39:44;24.10;60.60
74220;DHT22;62580;54.416;11.120;2022-09-01T16:49:53;24.00;60.60
74220;DHT22;62580;54.416;11.120;2022-09-01T16:59:58;24.10;60.70
74220;DHT22;62580;54.416;11.120;2022-09-01T17:10:04;24.10;60.40
74220;DHT22;62580;54.416;11.120;2022-09-01T17:20:06;24.00;60.10
74220;DHT22;62580;54.416;11.120;2022-09-01T17:30:11;24.00;60.20
74220;DHT22;62580;54.416;11.120;2022-09-01T17:40:17;24.00;60.20
74220;DHT22;62580;54.416;11.120;2022-09-01T17:50:22;24.00;60.90
74220;DHT22;62580;54.416;11.120;2022-09-01T18:00:27;23.90;60.20
74220;DHT22;62580;54.416;11.120;2022-09-01T18:10:35;23.90;60.20
74220;DHT22;62580;54.416;11.120;2022-09-01T18:20:40;23.90;60.20
74220;DHT22;62580;54.416;11.120;2022-09-01T18:30:52;23.90;60.30
74220;DHT22;62580;54.416;11.120;2022-09-01T18:41:03;23.90;60.30
74220;DHT22;62580;54.416;11.120;2022-09-01T18:51:16;23.90;60.30
74220;DHT22;62580;54.416;11.120;2022-09-01T19:01:27;23.90;60.20
74220;DHT22;62580;54.416;11.120;2022-09-01T19:11:41;23.90;60.20
74220;DHT22;62580;54.416;11.120;2022-09-01T19:21:45;23.90;60.20
74220;DHT22;62580;54.416;11.120;2022-09-01T19:31:55;23.90;60.20
74220;DHT22;62580;54.416;11.120;2022-09-01T19:41:59;23.90;60.20
74220;DHT22;62580;54.416;11.120;2022-09-01T19:52:07;23.80;60.10
74220;DHT22;62580;54.416;11.120;2022-09-01T20:02:18;23.90;60.10
74220;DHT22;62580;54.416;11.120;2022-09-01T20:12:27;23.90;60.10
74220;DHT22;62580;54.416;11.120;2022-09-01T20:22:34;23.80;60.10
74220;DHT22;62580;54.416;11.120;2022-09-01T20:32:44;23.80;60.10
74220;DHT22;62580;54.416;11.120;2022-09-01T20:42:53;23.80;60.10
74220;DHT22;62580;54.416;11.120;2022-09-01T20:53:09;23.80;60.10
74220;DHT22;62580;54.416;11.120;2022-09-01T21:03:17;23.80;60.00
74220;DHT22;62580;54.416;11.120;2022-09-01T21:13:30;23.80;60.00
74220;DHT22;62580;54.416;11.120;2022-09-01T21:23:34;23.80;60.10
74220;DHT22;62580;54.416;11.120;2022-09-01T21:33:39;23.80;60.10
74220;DHT22;62580;54.416;11.120;2022-09-01T21:43:43;23.80;60.10
74220;DHT22;62580;54.416;11.120;2022-09-01T21:53:45;23.80;60.00
74220;DHT22;62580;54.416;11.120;2022-09-01T22:03:46;23.80;60.00
74220;DHT22;62580;54.416;11.120;2022-09-01T22:13:48;23.70;59.90
74220;DHT22;62580;54.416;11.120;2022-09-01T22:23:49;23.80;59.90
74220;DHT22;62580;54.416;11.120;2022-09-01T22:33:55;23.80;59.90
74220;DHT22;62580;54.416;11.120;2022-09-01T22:43:57;23.80;60.00
74220;DHT22;62580;54.416;11.120;2022-09-01T22:53:59;23.70;59.90
74220;DHT22;62580;54.416;11.120;2022-09-01T23:04:01;23.80;59.90
74220;DHT22;62580;54.416;11.120;2022-09-01T23:14:04;23.80;59.90
74220;DHT22;62580;54.416;11.120;2022-09-01T23:24:05;23.70;59.80
74220;DHT22;62580;54.416;11.120;2022-09-01T23:34:13;23.70;59.80
74220;DHT22;62580;54.416;11.120;2022-09-01T23:44:14;23.70;59.70
74220;DHT22;62580;54.416;11.120;2022-09-01T23:54:16;23.70;59.80
